sensor_id;sensor_type;location;lat;lon;timestamp;pressure;altitude;pressure_sealevel;temperature;humidity
43450;BME280;29041;42.266;23.110;2023-11-19T00:02:27;95810.69;;;2.89;100.00
43450;BME280;29041;42.266;23.110;2023-11-19T00:05:16;95818.66;;;2.79;100.00
43450;BME280;29041;42.266;23.110;2023-11-19T00:08:04;95837.44;;;2.88;100.00
43450;BME280;29041;42.266;23.110;2023-11-19T00:10:51;95831.13;;;2.78;100.00
43450;BME280;29041;42.266;23.110;2023-11-19T00:13:38;95829.75;;;2.96;100.00
43450;BME280;29041;42.266;23.110;2023-11-19T00:16:26;95829.53;;;2.82;100.00
43450;BME280;29041;42.266;23.110;2023-11-19T00:19:13;95834.00;;;2.92;100.00
43450;BME280;29041;42.266;23.110;2023-11-19T00:22:02;95840.84;;;3.09;100.00
43450;BME280;29041;42.266;23.110;2023-11-19T00:24:50;95841.69;;;2.99;100.00
43450;BME280;29041;42.266;23.110;2023-11-19T00:27:37;95838.78;;;2.90;100.00
43450;BME280;29041;42.266;23.110;2023-11-19T00:30:24;95834.03;;;2.82;100.00
43450;BME280;29041;42.266;23.110;2023-11-19T00:33:11;95852.03;;;2.95;100.00
43450;BME280;29041;42.266;23.110;2023-11-19T00:35:58;95849.44;;;2.69;100.00
43450;BME280;29041;42.266;23.110;2023-11-19T00:38:47;95857.09;;;2.87;100.00
43450;BME280;29041;42.266;23.110;2023-11-19T00:41:34;95867.13;;;3.00;100.00
43450;BME280;29041;42.266;23.110;2023-11-19T00:44:21;95863.44;;;3.01;100.00
43450;BME280;29041;42.266;23.110;2023-11-19T00:47:08;95865.03;;;2.92;100.00
43450;BME280;29041;42.266;23.110;2023-11-19T00:49:55;95863.38;;;3.11;100.00
43450;BME280;29041;42.266;23.110;2023-11-19T00:52:42;95876.94;;;2.99;100.00
43450;BME280;29041;42.266;23.110;2023-11-19T00:55:31;95858.91;;;3.01;100.00
43450;BME280;29041;42.266;23.110;2023-11-19T00:58:18;95882.78;;;3.01;100.00
43450;BME280;29041;42.266;23.110;2023-11-19T01:01:05;95880.66;;;3.04;100.00
43450;BME280;29041;42.266;23.110;2023-11-19T01:03:52;95868.47;;;2.97;100.00
43450;BME280;29041;42.266;23.110;2023-11-19T01:06:40;95872.38;;;3.10;100.00
43450;BME280;29041;42.266;23.110;2023-11-19T01:09:27;95882.00;;;3.01;100.00
43450;BME280;29041;42.266;23.110;2023-11-19T01:12:16;95887.03;;;2.92;100.00
43450;BME280;29041;42.266;23.110;2023-11-19T01:15:05;95887.84;;;2.88;100.00
43450;BME280;29041;42.266;23.110;2023-11-19T01:17:52;95898.19;;;2.89;100.00
43450;BME280;29041;42.266;23.110;2023-11-19T01:20:39;95881.97;;;2.96;100.00
43450;BME280;29041;42.266;23.110;2023-11-19T01:23:26;95869.81;;;2.90;100.00
43450;BME280;29041;42.266;23.110;2023-11-19T01:26:13;95860.00;;;2.90;100.00
43450;BME280;29041;42.266;23.110;2023-11-19T01:29:02;95872.97;;;2.97;100.00
43450;BME280;29041;42.266;23.110;2023-11-19T01:31:50;95873.53;;;2.94;100.00
43450;BME280;29041;42.266;23.110;2023-11-19T01:34:38;95875.38;;;2.88;100.00
43450;BME280;29041;42.266;23.110;2023-11-19T01:37:27;95888.31;;;3.10;100.00
43450;BME280;29041;42.266;23.110;2023-11-19T01:40:20;95882.81;;;2.86;100.00
43450;BME280;29041;42.266;23.110;2023-11-19T01:43:08;95881.16;;;3.06;100.00
43450;BME280;29041;42.266;23.110;2023-11-19T01:45:58;95889.97;;;2.91;100.00
43450;BME280;29041;42.266;23.110;2023-11-19T01:48:46;95893.38;;;3.01;100.00
43450;BME280;29041;42.266;23.110;2023-11-19T01:51:33;95888.81;;;3.17;100.00
43450;BME280;29041;42.266;23.110;2023-11-19T01:54:21;95887.56;;;2.94;100.00
43450;BME280;29041;42.266;23.110;2023-11-19T01:57:09;95876.22;;;2.78;100.00
43450;BME280;29041;42.266;23.110;2023-11-19T01:59:56;95894.22;;;2.87;100.00
43450;BME280;29041;42.266;23.110;2023-11-19T02:02:46;95896.88;;;2.81;100.00
43450;BME280;29041;42.266;23.110;2023-11-19T02:05:33;95901.38;;;2.86;100.00
43450;BME280;29041;42.266;23.110;2023-11-19T02:08:20;95888.06;;;3.01;100.00
43450;BME280;29041;42.266;23.110;2023-11-19T02:11:08;95881.19;;;2.95;100.00
43450;BME280;29041;42.266;23.110;2023-11-19T02:13:55;95873.19;;;3.11;100.00
43450;BME280;29041;42.266;23.110;2023-11-19T02:16:42;95867.97;;;2.90;100.00
43450;BME280;29041;42.266;23.110;2023-11-19T02:19:31;95874.56;;;2.88;100.00
43450;BME280;29041;42.266;23.110;2023-11-19T02:22:18;95867.47;;;2.83;100.00
43450;BME280;29041;42.266;23.110;2023-11-19T02:25:07;95876.97;;;2.84;100.00
43450;BME280;29041;42.266;23.110;2023-11-19T02:28:01;95877.00;;;2.79;100.00
43450;BME280;29041;42.266;23.110;2023-11-19T02:30:48;95876.19;;;2.94;100.00
43450;BME280;29041;42.266;23.110;2023-11-19T02:33:35;95881.41;;;3.09;100.00
43450;BME280;29041;42.266;23.110;2023-11-19T02:36:23;95874.28;;;3.05;100.00
43450;BME280;29041;42.266;23.110;2023-11-19T02:39:10;95875.28;;;3.14;100.00
43450;BME280;29041;42.266;23.110;2023-11-19T02:41:58;95883.56;;;3.02;100.00
43450;BME280;29041;42.266;23.110;2023-11-19T02:44:47;95878.03;;;2.93;100.00
43450;BME280;29041;42.266;23.110;2023-11-19T02:47:34;95873.00;;;2.81;100.00
43450;BME280;29041;42.266;23.110;2023-11-19T02:50:22;95876.44;;;2.92;100.00
43450;BME280;29041;42.266;23.110;2023-11-19T02:53:11;95871.16;;;2.87;100.00
43450;BME280;29041;42.266;23.110;2023-11-19T02:55:58;95875.38;;;2.93;100.00
43450;BME280;29041;42.266;23.110;2023-11-19T02:58:55;95879.09;;;2.97;100.00
43450;BME280;29041;42.266;23.110;2023-11-19T03:01:43;95873.81;;;2.77;100.00
43450;BME280;29041;42.266;23.110;2023-11-19T03:04:35;95871.41;;;2.91;100.00
43450;BME280;29041;42.266;23.110;2023-11-19T03:07:24;95879.63;;;2.89;100.00
43450;BME280;29041;42.266;23.110;2023-11-19T03:10:11;95881.00;;;2.71;100.00
43450;BME280;29041;42.266;23.110;2023-11-19T03:12:59;95895.31;;;2.70;100.00
43450;BME280;29041;42.266;23.110;2023-11-19T03:15:47;95892.66;;;2.65;100.00
43450;BME280;29041;42.266;23.110;2023-11-19T03:18:36;95888.13;;;2.76;100.00
43450;BME280;29041;42.266;23.110;2023-11-19T03:21:27;95893.97;;;2.73;100.00
43450;BME280;29041;42.266;23.110;2023-11-19T03:24:14;95892.66;;;2.75;100.00
43450;BME280;29041;42.266;23.110;2023-11-19T03:27:03;95892.41;;;2.51;100.00
43450;BME280;29041;42.266;23.110;2023-11-19T03:29:50;95893.75;;;2.48;100.00
43450;BME280;29041;42.266;23.110;2023-11-19T03:32:38;95877.03;;;2.58;100.00
43450;BME280;29041;42.266;23.110;2023-11-19T03:35:26;95870.94;;;2.42;100.00
43450;BME280;29041;42.266;23.110;2023-11-19T03:38:13;95881.28;;;2.44;100.00
43450;BME280;29041;42.266;23.110;2023-11-19T03:41:01;95863.00;;;2.37;100.00
43450;BME280;29041;42.266;23.110;2023-11-19T03:43:49;95885.00;;;2.32;100.00
43450;BME280;29041;42.266;23.110;2023-11-19T03:46:36;95880.78;;;2.36;100.00
43450;BME280;29041;42.266;23.110;2023-11-19T03:49:23;95897.97;;;2.29;100.00
43450;BME280;29041;42.266;23.110;2023-11-19T03:52:12;95903.00;;;2.25;100.00
43450;BME280;29041;42.266;23.110;2023-11-19T03:54:59;95914.69;;;2.29;100.00
43450;BME280;29041;42.266;23.110;2023-11-19T03:57:46;95910.72;;;2.32;100.00
43450;BME280;29041;42.266;23.110;2023-11-19T04:00:34;95915.19;;;2.26;100.00
43450;BME280;29041;42.266;23.110;2023-11-19T04:03:21;95927.69;;;2.41;100.00
43450;BME280;29041;42.266;23.110;2023-11-19T04:06:08;95942.50;;;2.37;100.00
43450;BME280;29041;42.266;23.110;2023-11-19T04:08:57;95935.59;;;2.31;100.00
43450;BME280;29041;42.266;23.110;2023-11-19T04:11:44;95934.56;;;2.32;100.00
43450;BME280;29041;42.266;23.110;2023-11-19T04:14:32;95915.75;;;2.28;100.00
43450;BME280;29041;42.266;23.110;2023-11-19T04:17:19;95931.63;;;2.54;100.00
43450;BME280;29041;42.266;23.110;2023-11-19T04:20:07;95927.41;;;2.27;100.00
43450;BME280;29041;42.266;23.110;2023-11-19T04:22:58;95944.09;;;2.33;100.00
43450;BME280;29041;42.266;23.110;2023-11-19T04:25:47;95944.63;;;2.40;100.00
43450;BME280;29041;42.266;23.110;2023-11-19T04:28:35;95954.41;;;2.19;100.00
43450;BME280;29041;42.266;23.110;2023-11-19T04:31:22;95949.66;;;2.26;100.00
43450;BME280;29041;42.266;23.110;2023-11-19T04:34:09;95945.94;;;2.22;100.00
43450;BME280;29041;42.266;23.110;2023-11-19T04:36:57;95943.28;;;2.22;100.00
43450;BME280;29041;42.266;23.110;2023-11-19T04:39:44;95950.19;;;2.33;100.00
43450;BME280;29041;42.266;23.110;2023-11-19T04:42:33;95949.66;;;2.36;100.00
43450;BME280;29041;42.266;23.110;2023-11-19T04:45:20;95964.22;;;2.39;100.00
43450;BME280;29041;42.266;23.110;2023-11-19T04:48:07;95986.22;;;2.29;100.00
43450;BME280;29041;42.266;23.110;2023-11-19T04:50:57;95981.47;;;2.36;100.00
43450;BME280;29041;42.266;23.110;2023-11-19T04:53:44;95974.03;;;2.28;100.00
43450;BME280;29041;42.266;23.110;2023-11-19T04:56:31;95954.94;;;2.26;100.00
43450;BME280;29041;42.266;23.110;2023-11-19T04:59:20;95967.66;;;2.34;100.00
43450;BME280;29041;42.266;23.110;2023-11-19T05:02:08;95960.25;;;2.31;100.00
43450;BME280;29041;42.266;23.110;2023-11-19T05:04:55;95954.41;;;2.40;100.00
43450;BME280;29041;42.266;23.110;2023-11-19T05:07:42;95946.47;;;2.29;100.00
43450;BME280;29041;42.266;23.110;2023-11-19T05:10:29;95960.25;;;2.62;100.00
43450;BME280;29041;42.266;23.110;2023-11-19T05:13:17;95980.41;;;2.37;100.00
43450;BME280;29041;42.266;23.110;2023-11-19T05:16:06;95977.19;;;2.46;100.00
43450;BME280;29041;42.266;23.110;2023-11-19T05:18:55;95998.41;;;2.30;100.00
43450;BME280;29041;42.266;23.110;2023-11-19T05:21:42;95992.84;;;2.37;100.00
43450;BME280;29041;42.266;23.110;2023-11-19T05:24:31;95987.28;;;2.49;100.00
43450;BME280;29041;42.266;23.110;2023-11-19T05:27:18;95988.59;;;2.31;100.00
43450;BME280;29041;42.266;23.110;2023-11-19T05:30:06;95999.97;;;2.31;100.00
43450;BME280;29041;42.266;23.110;2023-11-19T05:32:56;95997.31;;;2.26;100.00
43450;BME280;29041;42.266;23.110;2023-11-19T05:35:43;95990.72;;;2.39;100.00
43450;BME280;29041;42.266;23.110;2023-11-19T05:38:30;95990.19;;;2.42;100.00
43450;BME280;29041;42.266;23.110;2023-11-19T05:41:17;95989.97;;;2.59;100.00
43450;BME280;29041;42.266;23.110;2023-11-19T05:44:04;95980.41;;;2.58;100.00
43450;BME280;29041;42.266;23.110;2023-11-19T05:46:52;95989.94;;;2.54;100.00
43450;BME280;29041;42.266;23.110;2023-11-19T05:49:40;95987.28;;;2.23;100.00
43450;BME280;29041;42.266;23.110;2023-11-19T05:52:27;95985.72;;;2.74;100.00
43450;BME280;29041;42.266;23.110;2023-11-19T05:55:19;96000.53;;;2.54;100.00
43450;BME280;29041;42.266;23.110;2023-11-19T05:58:06;96002.66;;;2.36;100.00
43450;BME280;29041;42.266;23.110;2023-11-19T06:00:57;96001.59;;;2.37;100.00
43450;BME280;29041;42.266;23.110;2023-11-19T06:03:46;95987.53;;;2.37;100.00
43450;BME280;29041;42.266;23.110;2023-11-19T06:06:37;95991.28;;;2.77;100.00
43450;BME280;29041;42.266;23.110;2023-11-19T06:09:24;95998.41;;;2.61;100.00
43450;BME280;29041;42.266;23.110;2023-11-19T06:12:11;96014.59;;;2.60;100.00
43450;BME280;29041;42.266;23.110;2023-11-19T06:15:03;96024.16;;;2.76;100.00
43450;BME280;29041;42.266;23.110;2023-11-19T06:17:51;96025.47;;;2.99;100.00
43450;BME280;29041;42.266;23.110;2023-11-19T06:20:41;96039.25;;;2.60;100.00
43450;BME280;29041;42.266;23.110;2023-11-19T06:23:29;96033.91;;;2.34;100.00
43450;BME280;29041;42.266;23.110;2023-11-19T06:26:17;96032.06;;;2.40;100.00
43450;BME280;29041;42.266;23.110;2023-11-19T06:29:04;96036.88;;;2.48;100.00
43450;BME280;29041;42.266;23.110;2023-11-19T06:31:51;96033.66;;;2.41;100.00
43450;BME280;29041;42.266;23.110;2023-11-19T06:34:38;96016.41;;;2.28;100.00
43450;BME280;29041;42.266;23.110;2023-11-19T06:37:25;96032.84;;;2.30;100.00
43450;BME280;29041;42.266;23.110;2023-11-19T06:40:14;96027.06;;;2.69;100.00
43450;BME280;29041;42.266;23.110;2023-11-19T06:43:02;96036.06;;;2.63;100.00
43450;BME280;29041;42.266;23.110;2023-11-19T06:45:49;96042.44;;;2.57;100.00
43450;BME280;29041;42.266;23.110;2023-11-19T06:48:36;96031.06;;;2.77;100.00
43450;BME280;29041;42.266;23.110;2023-11-19T06:51:25;96033.91;;;2.40;100.00
43450;BME280;29041;42.266;23.110;2023-11-19T06:54:12;96039.78;;;2.52;100.00
43450;BME280;29041;42.266;23.110;2023-11-19T06:57:02;96040.81;;;2.35;100.00
43450;BME280;29041;42.266;23.110;2023-11-19T06:59:51;96027.56;;;2.41;100.00
43450;BME280;29041;42.266;23.110;2023-11-19T07:02:38;96044.03;;;2.53;100.00
43450;BME280;29041;42.266;23.110;2023-11-19T07:05:25;96031.22;;;2.24;100.00
43450;BME280;29041;42.266;23.110;2023-11-19T07:08:13;96053.75;;;2.16;100.00
43450;BME280;29041;42.266;23.110;2023-11-19T07:11:00;96055.88;;;2.35;100.00
43450;BME280;29041;42.266;23.110;2023-11-19T07:13:48;96040.81;;;2.41;100.00
43450;BME280;29041;42.266;23.110;2023-11-19T07:16:35;96049.34;;;2.53;100.00
43450;BME280;29041;42.266;23.110;2023-11-19T07:19:23;96041.56;;;2.20;100.00
43450;BME280;29041;42.266;23.110;2023-11-19T07:22:17;96067.03;;;2.32;100.00
43450;BME280;29041;42.266;23.110;2023-11-19T07:25:04;96062.00;;;2.46;100.00
43450;BME280;29041;42.266;23.110;2023-11-19T07:27:52;96051.94;;;2.48;100.00
43450;BME280;29041;42.266;23.110;2023-11-19T07:30:46;96062.28;;;2.34;100.00
43450;BME280;29041;42.266;23.110;2023-11-19T07:33:33;96034.69;;;2.30;100.00
43450;BME280;29041;42.266;23.110;2023-11-19T07:36:20;96056.44;;;2.37;100.00
43450;BME280;29041;42.266;23.110;2023-11-19T07:39:07;96054.00;;;2.15;100.00
43450;BME280;29041;42.266;23.110;2023-11-19T07:41:54;96078.97;;;2.40;100.00
43450;BME280;29041;42.266;23.110;2023-11-19T07:44:43;96093.81;;;2.41;100.00
43450;BME280;29041;42.266;23.110;2023-11-19T07:47:31;96084.19;;;2.14;100.00
43450;BME280;29041;42.266;23.110;2023-11-19T07:50:18;96095.09;;;2.28;100.00
43450;BME280;29041;42.266;23.110;2023-11-19T07:53:06;96088.50;;;2.46;100.00
43450;BME280;29041;42.266;23.110;2023-11-19T07:55:53;96089.59;;;2.45;100.00
43450;BME280;29041;42.266;23.110;2023-11-19T07:58:40;96079.47;;;2.26;100.00
43450;BME280;29041;42.266;23.110;2023-11-19T08:01:27;96071.28;;;2.43;100.00
43450;BME280;29041;42.266;23.110;2023-11-19T08:04:16;96078.16;;;2.34;100.00
43450;BME280;29041;42.266;23.110;2023-11-19T08:07:03;96081.41;;;2.72;100.00
43450;BME280;29041;42.266;23.110;2023-11-19T08:09:50;96078.72;;;2.51;100.00
43450;BME280;29041;42.266;23.110;2023-11-19T08:12:37;96075.00;;;2.42;100.00
43450;BME280;29041;42.266;23.110;2023-11-19T08:15:24;96080.22;;;2.11;100.00
43450;BME280;29041;42.266;23.110;2023-11-19T08:18:11;96085.84;;;2.46;100.00
43450;BME280;29041;42.266;23.110;2023-11-19T08:21:00;96090.06;;;2.31;100.00
43450;BME280;29041;42.266;23.110;2023-11-19T08:23:50;96106.22;;;2.25;100.00
43450;BME280;29041;42.266;23.110;2023-11-19T08:26:37;96109.97;;;2.34;100.00
43450;BME280;29041;42.266;23.110;2023-11-19T08:29:24;96108.38;;;2.33;100.00
43450;BME280;29041;42.266;23.110;2023-11-19T08:32:12;96112.06;;;2.32;100.00
43450;BME280;29041;42.266;23.110;2023-11-19T08:35:00;96098.28;;;2.30;100.00
43450;BME280;29041;42.266;23.110;2023-11-19T08:37:48;96094.66;;;2.57;100.00
43450;BME280;29041;42.266;23.110;2023-11-19T08:40:35;96095.19;;;2.59;100.00
43450;BME280;29041;42.266;23.110;2023-11-19T08:43:23;96075.81;;;2.43;100.00
43450;BME280;29041;42.266;23.110;2023-11-19T08:46:10;96108.47;;;2.64;100.00
43450;BME280;29041;42.266;23.110;2023-11-19T08:48:57;96117.66;;;2.46;100.00
43450;BME280;29041;42.266;23.110;2023-11-19T08:51:46;96118.25;;;2.68;100.00
43450;BME280;29041;42.266;23.110;2023-11-19T08:54:34;96115.59;;;2.63;100.00
43450;BME280;29041;42.266;23.110;2023-11-19T08:57:22;96117.16;;;2.54;100.00
43450;BME280;29041;42.266;23.110;2023-11-19T09:00:09;96124.13;;;2.81;100.00
43450;BME280;29041;42.266;23.110;2023-11-19T09:02:56;96110.28;;;2.53;100.00
43450;BME280;29041;42.266;23.110;2023-11-19T09:05:43;96124.63;;;2.78;100.00
43450;BME280;29041;42.266;23.110;2023-11-19T09:08:30;96111.16;;;3.00;100.00
43450;BME280;29041;42.266;23.110;2023-11-19T09:11:19;96114.84;;;2.89;100.00
43450;BME280;29041;42.266;23.110;2023-11-19T09:14:06;96119.91;;;3.06;100.00
43450;BME280;29041;42.266;23.110;2023-11-19T09:16:54;96111.94;;;3.21;100.00
43450;BME280;29041;42.266;23.110;2023-11-19T09:19:41;96102.41;;;3.15;100.00
43450;BME280;29041;42.266;23.110;2023-11-19T09:22:28;96113.81;;;3.00;100.00
43450;BME280;29041;42.266;23.110;2023-11-19T09:25:16;96107.19;;;3.03;100.00
43450;BME280;29041;42.266;23.110;2023-11-19T09:28:04;96107.16;;;2.87;100.00
43450;BME280;29041;42.266;23.110;2023-11-19T09:30:51;96095.50;;;2.88;100.00
43450;BME280;29041;42.266;23.110;2023-11-19T09:33:38;96097.63;;;3.01;100.00
43450;BME280;29041;42.266;23.110;2023-11-19T09:36:26;96099.75;;;3.15;100.00
43450;BME280;29041;42.266;23.110;2023-11-19T09:39:13;96101.81;;;3.59;100.00
43450;BME280;29041;42.266;23.110;2023-11-19T09:42:04;96103.19;;;3.36;99.68
43450;BME280;29041;42.266;23.110;2023-11-19T09:44:53;96083.53;;;3.47;100.00
43450;BME280;29041;42.266;23.110;2023-11-19T09:47:43;96073.22;;;3.20;100.00
43450;BME280;29041;42.266;23.110;2023-11-19T09:50:31;96066.25;;;3.50;99.29
43450;BME280;29041;42.266;23.110;2023-11-19T09:53:18;96053.66;;;3.97;95.43
43450;BME280;29041;42.266;23.110;2023-11-19T09:56:06;96055.84;;;3.79;96.46
43450;BME280;29041;42.266;23.110;2023-11-19T09:58:54;96049.91;;;4.58;93.72
43450;BME280;29041;42.266;23.110;2023-11-19T10:01:43;96051.06;;;6.18;88.53
43450;BME280;29041;42.266;23.110;2023-11-19T10:04:32;96044.13;;;6.42;83.98
43450;BME280;29041;42.266;23.110;2023-11-19T10:07:22;96039.75;;;5.59;86.55
43450;BME280;29041;42.266;23.110;2023-11-19T10:10:09;96032.69;;;4.45;92.11
43450;BME280;29041;42.266;23.110;2023-11-19T10:13:00;96031.41;;;4.38;92.11
43450;BME280;29041;42.266;23.110;2023-11-19T10:15:48;96027.22;;;5.01;88.81
43450;BME280;29041;42.266;23.110;2023-11-19T10:18:37;96032.88;;;5.77;85.85
43450;BME280;29041;42.266;23.110;2023-11-19T10:21:32;96006.75;;;5.79;84.71
43450;BME280;29041;42.266;23.110;2023-11-19T10:24:31;96021.91;;;6.08;82.00
43450;BME280;29041;42.266;23.110;2023-11-19T10:27:19;96027.09;;;6.38;81.08
43450;BME280;29041;42.266;23.110;2023-11-19T10:30:07;96029.06;;;6.32;82.80
43450;BME280;29041;42.266;23.110;2023-11-19T10:33:03;96026.84;;;6.15;81.95
43450;BME280;29041;42.266;23.110;2023-11-19T10:35:54;96018.50;;;6.79;78.56
43450;BME280;29041;42.266;23.110;2023-11-19T10:38:51;96012.75;;;7.66;75.30
43450;BME280;29041;42.266;23.110;2023-11-19T10:41:38;95997.19;;;7.26;76.32
43450;BME280;29041;42.266;23.110;2023-11-19T10:44:31;95995.63;;;7.53;75.65
43450;BME280;29041;42.266;23.110;2023-11-19T10:47:19;96001.72;;;8.23;71.03
43450;BME280;29041;42.266;23.110;2023-11-19T10:50:18;95984.53;;;8.75;69.83
43450;BME280;29041;42.266;23.110;2023-11-19T10:53:08;95982.34;;;8.03;68.02
43450;BME280;29041;42.266;23.110;2023-11-19T10:55:57;95979.09;;;7.78;69.32
43450;BME280;29041;42.266;23.110;2023-11-19T10:58:47;95971.72;;;8.85;68.13
43450;BME280;29041;42.266;23.110;2023-11-19T11:01:41;95964.53;;;8.72;67.90
43450;BME280;29041;42.266;23.110;2023-11-19T11:04:31;95954.19;;;8.56;66.38
43450;BME280;29041;42.266;23.110;2023-11-19T11:07:21;95944.78;;;8.45;66.12
43450;BME280;29041;42.266;23.110;2023-11-19T11:10:13;95962.69;;;7.85;67.07
43450;BME280;29041;42.266;23.110;2023-11-19T11:13:03;95959.38;;;7.88;69.43
43450;BME280;29041;42.266;23.110;2023-11-19T11:15:50;95924.78;;;8.88;66.84
43450;BME280;29041;42.266;23.110;2023-11-19T11:18:39;95929.69;;;8.86;64.39
43450;BME280;29041;42.266;23.110;2023-11-19T11:21:27;95919.66;;;9.41;63.96
43450;BME280;29041;42.266;23.110;2023-11-19T11:27:50;95910.25;;;8.49;64.32
43450;BME280;29041;42.266;23.110;2023-11-19T11:30:49;95912.69;;;9.31;63.36
43450;BME280;29041;42.266;23.110;2023-11-19T11:33:52;95914.13;;;9.28;62.09
43450;BME280;29041;42.266;23.110;2023-11-19T11:36:49;95907.44;;;9.17;63.12
43450;BME280;29041;42.266;23.110;2023-11-19T11:39:40;95900.06;;;9.23;63.08
43450;BME280;29041;42.266;23.110;2023-11-19T11:42:34;95910.56;;;9.50;61.85
43450;BME280;29041;42.266;23.110;2023-11-19T11:45:35;95918.53;;;8.70;63.16
43450;BME280;29041;42.266;23.110;2023-11-19T11:48:22;95914.81;;;8.57;65.27
43450;BME280;29041;42.266;23.110;2023-11-19T11:51:12;95912.78;;;9.17;64.05
43450;BME280;29041;42.266;23.110;2023-11-19T11:53:59;95906.69;;;8.62;63.64
43450;BME280;29041;42.266;23.110;2023-11-19T11:57:01;95888.22;;;9.64;63.54
43450;BME280;29041;42.266;23.110;2023-11-19T11:59:49;95879.63;;;9.35;61.52
43450;BME280;29041;42.266;23.110;2023-11-19T12:02:38;95888.88;;;8.89;63.12
43450;BME280;29041;42.266;23.110;2023-11-19T12:05:25;95887.25;;;9.51;62.97
43450;BME280;29041;42.266;23.110;2023-11-19T12:08:14;95883.72;;;9.33;61.07
43450;BME280;29041;42.266;23.110;2023-11-19T12:11:01;95866.28;;;8.72;62.23
43450;BME280;29041;42.266;23.110;2023-11-19T12:13:54;95859.63;;;8.61;63.37
43450;BME280;29041;42.266;23.110;2023-11-19T12:16:44;95866.91;;;8.69;63.26
43450;BME280;29041;42.266;23.110;2023-11-19T12:19:33;95861.56;;;8.24;63.16
43450;BME280;29041;42.266;23.110;2023-11-19T12:22:20;95883.53;;;8.21;64.29
43450;BME280;29041;42.266;23.110;2023-11-19T12:25:08;95872.84;;;8.21;63.09
43450;BME280;29041;42.266;23.110;2023-11-19T12:27:56;95865.16;;;9.05;61.50
43450;BME280;29041;42.266;23.110;2023-11-19T12:30:44;95864.03;;;8.97;60.89
43450;BME280;29041;42.266;23.110;2023-11-19T12:33:31;95868.53;;;10.12;59.83
43450;BME280;29041;42.266;23.110;2023-11-19T12:36:20;95865.16;;;9.54;60.73
43450;BME280;29041;42.266;23.110;2023-11-19T12:39:07;95861.19;;;9.34;61.19
43450;BME280;29041;42.266;23.110;2023-11-19T12:41:55;95857.97;;;9.14;60.37
43450;BME280;29041;42.266;23.110;2023-11-19T12:44:54;95841.72;;;9.11;60.75
43450;BME280;29041;42.266;23.110;2023-11-19T12:47:43;95835.81;;;8.91;60.99
43450;BME280;29041;42.266;23.110;2023-11-19T12:50:50;95824.16;;;8.55;61.97
43450;BME280;29041;42.266;23.110;2023-11-19T12:53:48;95815.31;;;8.78;61.53
43450;BME280;29041;42.266;23.110;2023-11-19T12:56:36;95819.75;;;9.49;59.78
43450;BME280;29041;42.266;23.110;2023-11-19T12:59:23;95830.03;;;10.43;56.76
43450;BME280;29041;42.266;23.110;2023-11-19T13:02:10;95829.09;;;9.60;57.69
43450;BME280;29041;42.266;23.110;2023-11-19T13:04:58;95828.00;;;9.12;59.37
43450;BME280;29041;42.266;23.110;2023-11-19T13:07:45;95809.78;;;8.74;63.33
43450;BME280;29041;42.266;23.110;2023-11-19T13:10:50;95786.78;;;10.19;58.21
43450;BME280;29041;42.266;23.110;2023-11-19T13:13:56;95791.75;;;10.64;55.21
43450;BME280;29041;42.266;23.110;2023-11-19T13:16:45;95796.13;;;9.95;56.28
43450;BME280;29041;42.266;23.110;2023-11-19T13:19:32;95800.81;;;10.89;54.97
43450;BME280;29041;42.266;23.110;2023-11-19T13:22:19;95797.09;;;8.97;59.45
43450;BME280;29041;42.266;23.110;2023-11-19T13:25:07;95791.34;;;10.44;55.92
43450;BME280;29041;42.266;23.110;2023-11-19T13:27:59;95798.91;;;10.51;53.82
43450;BME280;29041;42.266;23.110;2023-11-19T13:30:47;95799.25;;;10.41;55.04
43450;BME280;29041;42.266;23.110;2023-11-19T13:33:35;95800.34;;;10.87;53.43
43450;BME280;29041;42.266;23.110;2023-11-19T13:36:22;95807.94;;;9.59;54.63
43450;BME280;29041;42.266;23.110;2023-11-19T13:39:09;95810.72;;;9.18;55.52
43450;BME280;29041;42.266;23.110;2023-11-19T13:41:57;95830.75;;;8.81;56.93
43450;BME280;29041;42.266;23.110;2023-11-19T13:44:47;95826.25;;;8.99;57.67
43450;BME280;29041;42.266;23.110;2023-11-19T13:47:34;95829.63;;;8.82;60.72
43450;BME280;29041;42.266;23.110;2023-11-19T13:50:21;95817.91;;;8.37;62.97
43450;BME280;29041;42.266;23.110;2023-11-19T13:53:08;95820.22;;;8.53;60.83
43450;BME280;29041;42.266;23.110;2023-11-19T13:55:55;95815.47;;;8.27;60.42
43450;BME280;29041;42.266;23.110;2023-11-19T13:58:42;95821.94;;;8.26;61.04
43450;BME280;29041;42.266;23.110;2023-11-19T14:01:31;95827.88;;;8.23;62.85
43450;BME280;29041;42.266;23.110;2023-11-19T14:04:18;95822.66;;;7.95;63.08
43450;BME280;29041;42.266;23.110;2023-11-19T14:07:05;95826.66;;;8.29;61.81
43450;BME280;29041;42.266;23.110;2023-11-19T14:09:52;95831.22;;;7.69;62.82
43450;BME280;29041;42.266;23.110;2023-11-19T14:12:39;95840.84;;;8.07;63.26
43450;BME280;29041;42.266;23.110;2023-11-19T14:15:27;95838.00;;;7.53;66.08
43450;BME280;29041;42.266;23.110;2023-11-19T14:18:17;95851.47;;;7.47;66.88
43450;BME280;29041;42.266;23.110;2023-11-19T14:21:05;95857.78;;;7.66;64.86
43450;BME280;29041;42.266;23.110;2023-11-19T14:23:52;95868.66;;;7.69;63.71
43450;BME280;29041;42.266;23.110;2023-11-19T14:26:39;95857.19;;;7.69;64.02
43450;BME280;29041;42.266;23.110;2023-11-19T14:29:26;95886.19;;;6.92;67.56
43450;BME280;29041;42.266;23.110;2023-11-19T14:32:14;95881.31;;;6.66;68.79
43450;BME280;29041;42.266;23.110;2023-11-19T14:35:03;95888.69;;;6.55;69.40
43450;BME280;29041;42.266;23.110;2023-11-19T14:37:50;95880.16;;;7.00;67.34
43450;BME280;29041;42.266;23.110;2023-11-19T14:40:37;95855.84;;;7.02;66.76
43450;BME280;29041;42.266;23.110;2023-11-19T14:43:24;95864.53;;;7.21;66.53
43450;BME280;29041;42.266;23.110;2023-11-19T14:46:12;95855.03;;;7.43;66.68
43450;BME280;29041;42.266;23.110;2023-11-19T14:48:59;95851.78;;;7.32;66.82